Time;durP1;ratioP1;P1;durP2;ratioP2;P2;SDS_P1;SDS_P2;PMS_P1;PMS_P2;Temp;Humidity;BMP_temperature;BMP_pressure;BME280_temperature;BME280_humidity;BME280_pressure;Samples;Min_cycle;Max_cycle;Signal;HPM_P1;HPM_P2
2023/04/25 00:00:52;;;;;;;3.05;1.48;;;18.60;42.10;;;;;;6145050;28;20492;-65
2023/04/25 00:03:53;;;;;;;4.40;1.30;;;18.60;42.20;;;;;;6145078;28;20090;-66
2023/04/25 00:06:54;;;;;;;3.75;1.42;;;18.60;42.60;;;;;;6145180;28;20382;-66
2023/04/25 00:09:55;;;;;;;3.20;1.15;;;18.60;43.00;;;;;;6145113;28;20027;-66
2023/04/25 00:12:57;;;;;;;3.95;1.25;;;18.60;43.30;;;;;;6145009;29;20492;-66
2023/04/25 00:15:58;;;;;;;4.05;1.40;;;18.60;43.50;;;;;;6143737;28;20434;-67
2023/04/25 00:18:59;;;;;;;3.03;1.27;;;18.60;43.50;;;;;;6143425;28;20038;-65
2023/04/25 00:22:00;;;;;;;4.95;1.30;;;18.60;43.80;;;;;;6145081;28;20035;-64
2023/04/25 00:25:03;;;;;;;1.67;1.05;;;18.50;43.90;;;;;;6138979;28;20035;-66
2023/04/25 00:28:04;;;;;;;2.45;1.23;;;18.50;44.20;;;;;;6119390;29;20035;-67
2023/04/25 00:31:05;;;;;;;5.25;1.75;;;18.50;44.30;;;;;;6119219;29;20024;-65
2023/04/25 00:34:07;;;;;;;2.22;1.42;;;18.50;44.40;;;;;;6118804;29;20190;-66
2023/04/25 00:37:10;;;;;;;4.78;1.67;;;18.50;44.50;;;;;;6119947;29;20040;-67
2023/04/25 00:40:11;;;;;;;3.67;1.70;;;18.40;44.60;;;;;;6119037;29;20461;-67
2023/04/25 00:43:12;;;;;;;2.85;1.30;;;18.50;44.70;;;;;;6120353;29;20043;-67
2023/04/25 00:46:13;;;;;;;9.57;1.85;;;18.50;44.70;;;;;;6120416;29;20028;-67
2023/04/25 00:49:16;;;;;;;3.38;1.88;;;18.40;44.70;;;;;;6118809;29;20362;-66
2023/04/25 00:52:17;;;;;;;4.10;1.80;;;18.50;45.00;;;;;;6131344;29;20059;-69
2023/04/25 00:55:19;;;;;;;2.50;1.40;;;18.40;45.30;;;;;;6142475;28;20035;-68
2023/04/25 00:58:21;;;;;;;2.10;1.23;;;18.40;45.50;;;;;;6143833;28;20039;-67
2023/04/25 01:01:22;;;;;;;5.00;1.70;;;18.40;45.70;;;;;;6142628;28;20038;-67
2023/04/25 01:04:23;;;;;;;3.42;1.27;;;18.30;45.70;;;;;;6144081;28;20400;-67
2023/04/25 01:07:24;;;;;;;2.30;1.20;;;18.30;45.80;;;;;;6143838;28;20028;-66
2023/04/25 01:10:28;;;;;;;3.17;1.50;;;18.30;45.80;;;;;;6142666;28;20122;-68
2023/04/25 01:13:29;;;;;;;4.57;1.50;;;18.30;45.90;;;;;;6142685;28;20136;-65
2023/04/25 01:16:31;;;;;;;3.03;1.77;;;18.30;46.00;;;;;;6142208;28;20203;-67
2023/04/25 01:19:32;;;;;;;4.60;1.30;;;18.30;46.20;;;;;;6141959;28;20290;-65
2023/04/25 01:22:33;;;;;;;3.25;1.67;;;18.30;46.20;;;;;;6107687;28;20040;-67
2023/04/25 01:25:34;;;;;;;4.75;1.42;;;18.30;46.30;;;;;;6096132;29;20024;-69
2023/04/25 01:28:36;;;;;;;6.90;1.30;;;18.30;46.40;;;;;;6114303;29;20179;-66
2023/04/25 01:31:38;;;;;;;2.47;1.35;;;18.30;46.40;;;;;;6118455;29;20799;-67
2023/04/25 01:34:40;;;;;;;3.42;1.13;;;18.30;46.40;;;;;;6118261;29;20095;-68
2023/04/25 01:37:42;;;;;;;8.23;1.65;;;18.20;46.40;;;;;;6118335;29;20453;-67
2023/04/25 01:40:47;;;;;;;2.13;1.50;;;18.10;46.40;;;;;;6118950;29;20032;-67
2023/04/25 01:43:48;;;;;;;3.90;1.52;;;18.10;46.30;;;;;;6118544;29;20032;-69
2023/04/25 01:46:49;;;;;;;2.28;1.30;;;18.10;46.20;;;;;;6118637;29;20173;-68
2023/04/25 01:49:50;;;;;;;2.40;1.10;;;18.00;46.00;;;;;;6121647;29;20051;-66
2023/04/25 01:52:51;;;;;;;8.13;1.55;;;18.00;45.90;;;;;;6137772;29;20107;-66
2023/04/25 01:55:54;;;;;;;5.15;1.52;;;18.00;45.80;;;;;;6145941;28;20433;-66
2023/04/25 01:58:57;;;;;;;5.35;1.52;;;18.00;45.90;;;;;;6145916;28;20031;-68
2023/04/25 02:02:17;;;;;;;2.90;1.48;;;18.00;45.80;;;;;;6147624;28;20031;-67
2023/04/25 02:05:19;;;;;;;2.38;1.35;;;18.00;45.80;;;;;;6145933;28;20181;-68
2023/04/25 02:08:20;;;;;;;3.60;1.25;;;18.00;45.80;;;;;;6147277;28;20062;-69
2023/04/25 02:11:21;;;;;;;3.00;1.48;;;18.00;45.90;;;;;;6129922;29;20113;-70
2023/04/25 02:14:35;;;;;;;3.55;1.33;;;17.90;45.90;;;;;;6131573;29;20429;-68
2023/04/25 02:17:55;;;;;;;3.92;1.42;;;17.90;45.80;;;;;;6138414;28;20032;-66
2023/04/25 02:20:57;;;;;;;3.65;1.50;;;17.90;45.90;;;;;;6121949;29;20042;-66
2023/04/25 02:23:58;;;;;;;8.32;1.52;;;17.90;46.00;;;;;;6123356;29;20405;-68
2023/04/25 02:26:59;;;;;;;2.65;1.25;;;17.90;46.10;;;;;;6105615;29;20024;-67
2023/04/25 02:30:01;;;;;;;1.80;1.30;;;17.80;46.20;;;;;;6121941;29;20032;-66
2023/04/25 02:33:01;;;;;;;3.15;1.33;;;17.80;46.30;;;;;;6121455;29;20361;-65
2023/04/25 02:36:04;;;;;;;5.05;1.40;;;17.70;46.40;;;;;;6121484;29;20031;-68
2023/04/25 02:39:05;;;;;;;1.85;1.50;;;17.70;46.50;;;;;;6121385;29;20401;-66
2023/04/25 02:42:06;;;;;;;2.20;1.48;;;17.70;46.60;;;;;;6121421;29;20039;-65
2023/04/25 02:45:08;;;;;;;3.13;1.92;;;17.60;46.80;;;;;;6121397;29;20105;-69
2023/04/25 02:48:09;;;;;;;2.05;1.25;;;17.60;47.10;;;;;;6122591;29;20060;-67
2023/04/25 02:51:10;;;;;;;3.78;1.45;;;17.50;47.30;;;;;;6122981;29;20036;-67
2023/04/25 02:54:11;;;;;;;1.88;1.20;;;17.50;47.40;;;;;;6144967;28;20106;-67
2023/04/25 02:57:16;;;;;;;2.75;1.38;;;17.50;47.50;;;;;;6144276;28;20213;-65
2023/04/25 03:00:17;;;;;;;3.42;1.42;;;17.50;47.50;;;;;;6144476;28;20165;-67
2023/04/25 03:03:21;;;;;;;3.65;1.45;;;17.50;47.40;;;;;;6129239;29;20027;-67
2023/04/25 03:06:22;;;;;;;4.40;1.40;;;17.50;47.30;;;;;;6128568;29;20073;-67
2023/04/25 03:09:23;;;;;;;6.18;1.40;;;17.40;47.30;;;;;;6128133;29;20023;-67
2023/04/25 03:12:25;;;;;;;3.30;1.50;;;17.40;47.30;;;;;;6144709;29;20376;-68
2023/04/25 03:15:29;;;;;;;7.72;1.52;;;17.40;47.20;;;;;;6125553;28;20034;-67
2023/04/25 03:18:30;;;;;;;2.92;1.45;;;17.30;47.20;;;;;;6104887;29;20073;-66
2023/04/25 03:21:33;;;;;;;11.13;1.80;;;17.30;47.30;;;;;;6120501;29;20554;-66
2023/04/25 03:24:34;;;;;;;1.95;1.35;;;17.30;47.40;;;;;;6120136;29;20031;-68
2023/04/25 03:27:36;;;;;;;4.70;1.35;;;17.20;47.50;;;;;;6120233;29;20032;-66
2023/04/25 03:30:37;;;;;;;11.38;1.30;;;17.20;48.30;;;;;;6120405;29;20053;-67
2023/04/25 03:33:37;;;;;;;4.43;1.77;;;17.20;47.90;;;;;;6119940;29;20051;-67
2023/04/25 03:36:38;;;;;;;2.00;1.50;;;17.20;47.90;;;;;;6120162;29;20118;-69
2023/04/25 03:39:39;;;;;;;3.00;1.52;;;17.10;47.90;;;;;;6119806;29;20031;-66
2023/04/25 03:42:41;;;;;;;5.88;1.60;;;17.10;47.90;;;;;;6120383;29;20119;-67
2023/04/25 03:45:42;;;;;;;5.40;1.75;;;17.10;47.90;;;;;;6122026;29;20053;-67
2023/04/25 03:48:43;;;;;;;5.45;2.25;;;17.10;47.90;;;;;;6120045;29;20463;-66
2023/04/25 03:51:48;;;;;;;12.68;2.05;;;17.10;47.90;;;;;;6119891;29;20477;-68
2023/04/25 03:54:50;;;;;;;6.93;1.80;;;17.10;47.90;;;;;;6120050;29;20521;-71
2023/04/25 03:57:54;;;;;;;6.00;1.65;;;17.10;47.90;;;;;;6119767;29;20532;-66
2023/04/25 04:00:55;;;;;;;13.73;2.13;;;17.10;47.90;;;;;;6119803;29;20042;-67
2023/04/25 04:03:56;;;;;;;4.88;1.83;;;17.00;47.90;;;;;;6113464;29;20437;-67
2023/04/25 04:06:58;;;;;;;6.78;1.98;;;16.90;47.80;;;;;;6095873;29;20028;-71
2023/04/25 04:10:02;;;;;;;5.20;1.58;;;16.90;47.50;;;;;;6085706;29;20028;-66
2023/04/25 04:13:10;;;;;;;2.90;1.67;;;16.90;47.10;;;;;;6119493;29;20047;-68
2023/04/25 04:16:11;;;;;;;7.32;1.80;;;16.80;46.60;;;;;;6120741;29;20429;-68
2023/04/25 04:19:12;;;;;;;8.38;2.17;;;16.80;46.20;;;;;;6119168;29;20115;-67
2023/04/25 04:22:17;;;;;;;2.42;1.60;;;16.70;46.00;;;;;;6119221;29;20028;-67
2023/04/25 04:25:20;;;;;;;3.45;1.85;;;16.70;46.10;;;;;;6118772;29;20035;-66
2023/04/25 04:28:41;;;;;;;8.85;1.98;;;16.70;46.10;;;;;;6118829;29;20028;-68
2023/04/25 04:32:06;;;;;;;9.20;2.03;;;16.70;46.30;;;;;;6118576;29;20170;-67
2023/04/25 04:35:08;;;;;;;2.83;1.73;;;16.60;46.50;;;;;;6119473;29;20355;-68
2023/04/25 04:38:11;;;;;;;6.15;2.22;;;16.50;46.60;;;;;;6118634;29;20330;-68
2023/04/25 04:41:13;;;;;;;4.03;1.73;;;16.50;46.70;;;;;;6119216;29;20124;-68
2023/04/25 04:44:44;;;;;;;2.30;1.80;;;16.40;46.90;;;;;;6093556;29;20040;-70
2023/04/25 04:47:57;;;;;;;5.57;1.80;;;16.40;47.20;;;;;;6093444;29;20037;-70
2023/04/25 04:51:07;;;;;;;5.65;2.25;;;16.30;47.20;;;;;;6094999;29;20039;-69
2023/04/25 04:54:20;;;;;;;8.80;2.00;;;16.30;47.40;;;;;;6117141;29;20154;-67
2023/04/25 04:57:36;;;;;;;3.08;2.13;;;16.30;47.40;;;;;;6116812;29;20036;-68
2023/04/25 05:00:56;;;;;;;10.68;2.30;;;16.20;47.20;;;;;;6117275;29;20031;-67
2023/04/25 05:04:07;;;;;;;5.28;2.30;;;16.20;47.10;;;;;;6101303;29;20031;-69
2023/04/25 05:07:47;;;;;;;3.58;1.70;;;16.20;46.90;;;;;;6029409;29;20045;-68
2023/04/25 05:11:17;;;;;;;3.90;1.83;;;16.30;46.80;;;;;;6011870;29;20033;-66
2023/04/25 05:14:30;;;;;;;7.30;2.00;;;16.30;46.70;;;;;;6034695;29;20052;-66
2023/04/25 05:18:02;;;;;;;4.85;2.10;;;16.30;46.60;;;;;;6046638;29;20080;-67
2023/04/25 05:21:14;;;;;;;3.97;1.98;;;16.30;46.60;;;;;;6031343;29;20052;-67
2023/04/25 05:24:31;;;;;;;8.40;1.90;;;16.40;46.70;;;;;;6049227;29;20598;-67
2023/04/25 05:27:40;;;;;;;10.25;2.05;;;16.40;46.70;;;;;;6050456;29;20120;-66
2023/04/25 05:30:50;;;;;;;5.72;1.95;;;16.40;46.70;;;;;;6050247;29;20577;-69
2023/04/25 05:34:01;;;;;;;6.32;1.80;;;16.40;46.70;;;;;;6018347;29;20155;-68
2023/04/25 05:37:13;;;;;;;5.18;2.10;;;16.50;46.70;;;;;;6042668;29;20040;-69
2023/04/25 05:40:26;;;;;;;3.60;1.55;;;16.50;46.70;;;;;;6122891;29;20020;-69
2023/04/25 05:43:46;;;;;;;6.78;2.20;;;16.50;46.70;;;;;;6123022;29;20118;-68
2023/04/25 05:47:08;;;;;;;5.97;2.35;;;16.60;46.60;;;;;;6123391;29;20440;-68
2023/04/25 05:50:29;;;;;;;7.75;2.05;;;16.70;46.50;;;;;;6123765;29;20039;-67
2023/04/25 05:53:50;;;;;;;5.97;2.15;;;16.70;46.30;;;;;;6146858;28;20143;-69
2023/04/25 05:56:51;;;;;;;11.57;2.20;;;16.80;46.20;;;;;;6146020;28;20027;-66
2023/04/25 05:59:52;;;;;;;5.82;2.00;;;16.90;46.20;;;;;;6146199;28;20118;-66
2023/04/25 06:02:54;;;;;;;8.32;2.50;;;16.90;46.20;;;;;;6145788;28;20102;-68
2023/04/25 06:05:56;;;;;;;7.80;2.47;;;16.90;46.20;;;;;;6147765;29;20023;-69
2023/04/25 06:08:57;;;;;;;7.22;2.30;;;16.90;46.20;;;;;;6145686;28;20031;-68
2023/04/25 06:11:58;;;;;;;5.95;1.92;;;17.00;46.60;;;;;;6125145;29;20024;-67
2023/04/25 06:15:00;;;;;;;3.75;1.70;;;17.00;46.80;;;;;;6123671;29;20063;-65
2023/04/25 06:18:01;;;;;;;5.20;1.77;;;17.00;46.80;;;;;;6121914;29;20036;-66
2023/04/25 06:21:02;;;;;;;3.88;1.98;;;17.00;46.80;;;;;;6123329;29;20077;-68
2023/04/25 06:24:04;;;;;;;7.50;2.22;;;17.00;46.70;;;;;;6106130;29;20429;-67
2023/04/25 06:27:05;;;;;;;11.80;1.67;;;17.00;46.80;;;;;;6121455;29;20024;-68
2023/04/25 06:30:06;;;;;;;4.57;1.83;;;17.00;46.90;;;;;;6121751;29;20493;-68
2023/04/25 06:33:08;;;;;;;9.52;2.17;;;17.00;46.80;;;;;;6121849;29;20031;-66
2023/04/25 06:36:10;;;;;;;4.45;2.33;;;17.00;46.80;;;;;;6122480;29;20031;-66
2023/04/25 06:39:12;;;;;;;5.80;2.22;;;17.00;46.90;;;;;;6122693;29;20035;-67
2023/04/25 06:42:13;;;;;;;6.30;2.20;;;17.00;47.00;;;;;;6122055;29;20431;-66
2023/04/25 06:45:34;;;;;;;7.80;1.95;;;17.10;46.90;;;;;;6123175;29;20118;-67
2023/04/25 06:48:35;;;;;;;10.00;2.03;;;17.20;46.60;;;;;;6120861;29;20186;-68
2023/04/25 06:51:36;;;;;;;8.10;2.67;;;17.20;46.60;;;;;;6126359;29;20085;-68
2023/04/25 06:54:37;;;;;;;7.07;2.20;;;17.20;46.60;;;;;;6145153;28;20660;-68
2023/04/25 06:57:51;;;;;;;7.00;2.03;;;17.10;46.70;;;;;;6130296;29;20126;-66
2023/04/25 07:01:15;;;;;;;7.63;2.20;;;17.10;46.90;;;;;;6098449;29;20465;-70
2023/04/25 07:04:16;;;;;;;2.70;2.15;;;17.10;47.00;;;;;;6098863;29;20039;-67
2023/04/25 07:07:23;;;;;;;10.50;2.20;;;17.20;47.00;;;;;;6112010;29;20659;-67
2023/04/25 07:10:29;;;;;;;6.15;2.25;;;17.10;47.00;;;;;;6106188;29;20046;-69
2023/04/25 07:13:31;;;;;;;9.35;2.10;;;17.10;47.00;;;;;;6121111;29;20035;-68
2023/04/25 07:16:32;;;;;;;4.70;2.17;;;17.20;47.10;;;;;;6121107;29;20032;-67
2023/04/25 07:19:34;;;;;;;8.10;1.98;;;17.20;47.00;;;;;;6120902;29;20039;-67
2023/04/25 07:22:36;;;;;;;3.55;2.10;;;17.10;46.90;;;;;;6121054;29;20429;-68
2023/04/25 07:25:38;;;;;;;9.38;2.15;;;17.10;47.10;;;;;;6121128;29;20296;-67
2023/04/25 07:28:39;;;;;;;9.32;2.40;;;17.00;47.20;;;;;;6120733;29;20100;-66
2023/04/25 07:31:40;;;;;;;7.97;2.03;;;17.00;47.20;;;;;;6122291;29;20122;-68
2023/04/25 07:34:41;;;;;;;7.63;2.40;;;17.10;47.20;;;;;;6122370;29;20430;-68
2023/04/25 07:37:42;;;;;;;11.50;2.30;;;17.10;47.20;;;;;;6120257;29;20031;-68
2023/04/25 07:40:50;;;;;;;14.00;2.75;;;17.10;47.10;;;;;;6120849;29;20036;-66
2023/04/25 07:43:51;;;;;;;8.63;1.98;;;17.10;47.10;;;;;;6120294;29;20043;-66
2023/04/25 07:46:54;;;;;;;7.80;2.33;;;17.20;46.80;;;;;;6119168;29;20377;-68
2023/04/25 07:49:56;;;;;;;7.18;2.70;;;17.20;46.50;;;;;;6120094;29;20023;-66
2023/04/25 07:52:57;;;;;;;10.13;2.30;;;17.30;46.40;;;;;;6135885;28;20019;-68
2023/04/25 07:56:05;;;;;;;6.30;2.13;;;17.40;46.20;;;;;;6114773;29;20491;-68
2023/04/25 07:59:10;;;;;;;5.30;2.53;;;17.50;45.80;;;;;;6119538;29;20043;-69
2023/04/25 08:02:12;;;;;;;9.02;2.70;;;17.50;45.60;;;;;;6103716;29;20127;-66
2023/04/25 08:05:14;;;;;;;4.60;2.30;;;17.60;45.40;;;;;;6119363;29;20059;-70
2023/04/25 08:08:19;;;;;;;5.28;1.98;;;17.60;45.30;;;;;;6120144;29;20032;-67
2023/04/25 08:11:21;;;;;;;6.90;2.65;;;17.60;45.10;;;;;;6120350;29;20207;-67
2023/04/25 08:14:22;;;;;;;7.05;2.10;;;17.50;45.00;;;;;;6120213;29;20088;-67
2023/04/25 08:17:23;;;;;;;4.32;2.10;;;17.50;45.10;;;;;;6120962;29;20058;-68
2023/04/25 08:20:24;;;;;;;4.38;2.08;;;17.40;45.30;;;;;;6119790;29;20150;-68
2023/04/25 08:23:29;;;;;;;11.40;2.47;;;17.50;45.40;;;;;;6119106;29;20350;-67
2023/04/25 08:26:39;;;;;;;5.40;2.00;;;17.40;45.30;;;;;;6104636;29;20023;-68
2023/04/25 08:29:42;;;;;;;7.07;2.33;;;17.40;45.40;;;;;;6118693;29;20023;-67
2023/04/25 08:32:44;;;;;;;6.47;2.17;;;17.40;45.50;;;;;;6119435;29;20027;-70
2023/04/25 08:35:57;;;;;;;6.43;2.08;;;17.50;45.30;;;;;;6119919;29;20140;-68
2023/04/25 08:38:59;;;;;;;6.18;2.47;;;17.70;44.90;;;;;;6119629;29;20061;-69
2023/04/25 08:42:07;;;;;;;6.95;2.20;;;17.90;45.10;;;;;;6119463;29;20095;-68
2023/04/25 08:45:09;;;;;;;3.55;2.05;;;17.90;44.10;;;;;;6119646;29;20110;-66
2023/04/25 08:48:14;;;;;;;6.82;2.33;;;17.80;44.00;;;;;;6119331;29;20118;-67
2023/04/25 08:51:24;;;;;;;7.55;2.70;;;17.80;44.10;;;;;;6105578;29;20032;-69
2023/04/25 08:54:28;;;;;;;7.38;2.63;;;17.80;44.80;;;;;;6144660;28;20448;-66
2023/04/25 08:57:31;;;;;;;8.45;3.05;;;17.80;44.10;;;;;;6128572;28;20031;-70
2023/04/25 09:00:32;;;;;;;9.23;2.60;;;18.10;43.90;;;;;;6128500;28;20042;-66
2023/04/25 09:03:35;;;;;;;3.95;2.05;;;18.40;43.40;;;;;;6124187;29;20114;-67
2023/04/25 09:06:36;;;;;;;9.15;2.30;;;18.60;42.90;;;;;;6108103;29;20083;-66
2023/04/25 09:09:37;;;;;;;3.92;2.00;;;18.80;42.60;;;;;;6107914;29;20156;-67
2023/04/25 09:12:39;;;;;;;6.20;2.15;;;19.00;42.30;;;;;;6123289;29;20047;-66
2023/04/25 09:15:54;;;;;;;6.15;1.98;;;19.10;41.90;;;;;;6124997;29;20113;-66
2023/04/25 09:19:37;;;;;;;5.32;1.88;;;19.30;41.60;;;;;;6123374;29;20361;-67
2023/04/25 09:22:38;;;;;;;10.15;2.30;;;19.50;40.70;;;;;;6122981;29;20039;-67
2023/04/25 09:25:39;;;;;;;4.43;2.10;;;19.60;40.40;;;;;;6122774;29;20055;-70
2023/04/25 09:28:42;;;;;;;10.18;2.15;;;19.70;40.00;;;;;;6124950;29;20027;-66
2023/04/25 09:31:44;;;;;;;5.78;2.60;;;19.80;39.80;;;;;;6125354;29;20028;-71
2023/04/25 09:34:49;;;;;;;4.90;2.08;;;19.90;39.40;;;;;;6126123;29;20043;-68
2023/04/25 09:37:51;;;;;;;5.90;1.88;;;20.00;39.00;;;;;;6123074;29;20168;-68
2023/04/25 09:41:25;;;;;;;7.75;2.10;;;20.10;38.50;;;;;;6121203;29;20031;-67
2023/04/25 09:44:28;;;;;;;11.25;2.17;;;20.20;38.20;;;;;;6121455;29;20047;-67
2023/04/25 09:47:29;;;;;;;6.88;1.88;;;20.20;37.90;;;;;;6120392;29;20030;-71
2023/04/25 09:50:31;;;;;;;4.65;1.98;;;20.20;37.50;;;;;;6104200;29;20134;-68
2023/04/25 09:53:42;;;;;;;2.08;1.60;;;20.20;37.50;;;;;;6126130;29;20106;-69
2023/04/25 09:56:52;;;;;;;3.90;1.70;;;20.20;37.20;;;;;;6116439;29;20358;-68
2023/04/25 09:59:56;;;;;;;3.38;1.88;;;20.30;37.00;;;;;;6096519;29;20043;-67
2023/04/25 10:03:03;;;;;;;5.88;1.58;;;20.50;36.40;;;;;;6096727;29;20062;-68
2023/04/25 10:06:33;;;;;;;2.45;1.42;;;20.60;36.10;;;;;;6096084;29;20032;-68
2023/04/25 10:09:39;;;;;;;3.70;1.90;;;20.70;35.60;;;;;;6096068;29;20044;-68
2023/04/25 10:12:42;;;;;;;6.78;2.20;;;20.70;35.50;;;;;;6096474;29;20036;-68
2023/04/25 10:15:44;;;;;;;6.38;2.28;;;20.80;35.50;;;;;;6096664;29;20040;-68
2023/04/25 10:18:45;;;;;;;5.80;1.83;;;20.90;35.30;;;;;;6098340;29;20135;-67
2023/04/25 10:21:56;;;;;;;8.60;1.90;;;21.00;34.90;;;;;;6097697;29;20586;-67
2023/04/25 10:24:57;;;;;;;6.63;2.20;;;21.10;35.00;;;;;;6098051;29;20028;-69
2023/04/25 10:28:01;;;;;;;4.85;1.45;;;21.20;34.30;;;;;;6097878;29;20055;-69
2023/04/25 10:31:07;;;;;;;3.17;1.63;;;21.10;34.00;;;;;;6099237;29;20069;-66
2023/04/25 10:34:08;;;;;;;5.53;1.77;;;21.00;34.20;;;;;;6112270;29;20044;-67
2023/04/25 10:37:10;;;;;;;4.72;1.80;;;20.80;34.20;;;;;;6119870;29;20376;-68
2023/04/25 10:40:12;;;;;;;7.75;1.98;;;20.60;34.10;;;;;;6122324;29;20044;-67
2023/04/25 10:43:31;;;;;;;7.53;2.40;;;20.40;34.30;;;;;;6122721;29;20079;-67
2023/04/25 10:46:34;;;;;;;7.07;2.47;;;20.20;34.70;;;;;;6122466;29;20072;-67
2023/04/25 10:49:42;;;;;;;4.90;2.63;;;20.20;35.00;;;;;;6122259;28;20035;-67
2023/04/25 10:52:46;;;;;;;8.43;2.40;;;20.40;34.80;;;;;;6122146;28;20034;-69
2023/04/25 10:55:51;;;;;;;4.32;1.83;;;20.60;34.40;;;;;;6122253;29;20030;-68
2023/04/25 10:59:06;;;;;;;6.65;2.17;;;21.00;33.60;;;;;;6120491;29;20066;-67
2023/04/25 11:02:13;;;;;;;7.90;1.60;;;21.40;32.40;;;;;;6122296;29;20042;-69
2023/04/25 11:05:34;;;;;;;3.17;1.80;;;21.70;31.50;;;;;;6122253;29;20035;-66
2023/04/25 11:08:48;;;;;;;2.50;1.45;;;21.80;31.30;;;;;;6121953;29;20031;-68
2023/04/25 11:11:59;;;;;;;7.15;2.08;;;21.60;31.40;;;;;;6120863;29;20046;-71
2023/04/25 11:15:06;;;;;;;3.00;1.55;;;21.50;31.50;;;;;;6121032;29;20043;-66
2023/04/25 11:18:07;;;;;;;2.70;1.80;;;21.30;31.30;;;;;;6120611;29;20035;-67
2023/04/25 11:21:08;;;;;;;7.43;1.67;;;21.10;30.90;;;;;;6120409;29;20055;-69
2023/04/25 11:24:09;;;;;;;6.05;1.48;;;21.10;30.70;;;;;;6121091;29;20785;-68
2023/04/25 11:27:10;;;;;;;3.83;1.90;;;21.40;30.00;;;;;;6119412;29;20055;-68
2023/04/25 11:30:13;;;;;;;4.75;1.88;;;21.80;29.60;;;;;;6119694;29;20036;-68
2023/04/25 11:33:14;;;;;;;4.40;1.73;;;22.30;29.40;;;;;;6096650;29;20028;-68
2023/04/25 11:36:15;;;;;;;2.05;1.48;;;22.70;28.60;;;;;;6098137;28;20074;-67
2023/04/25 11:39:16;;;;;;;5.43;1.70;;;22.90;27.60;;;;;;6097257;29;20032;-67
2023/04/25 11:42:17;;;;;;;3.80;1.80;;;23.10;27.40;;;;;;6120334;29;20030;-70
2023/04/25 11:45:18;;;;;;;5.10;1.90;;;23.30;27.40;;;;;;6121380;29;20178;-68
2023/04/25 11:48:20;;;;;;;4.82;1.63;;;23.60;27.40;;;;;;6120717;29;20127;-69
2023/04/25 11:51:21;;;;;;;3.67;1.85;;;23.80;27.20;;;;;;6121117;29;20027;-66
2023/04/25 11:54:23;;;;;;;4.00;1.60;;;24.20;27.10;;;;;;6121124;29;20027;-69
2023/04/25 11:57:23;;;;;;;3.85;1.77;;;24.30;27.00;;;;;;6121085;29;20020;-68
2023/04/25 12:00:25;;;;;;;6.13;1.98;;;24.50;27.00;;;;;;6121231;29;20498;-68
2023/04/25 12:03:30;;;;;;;5.55;2.25;;;24.60;26.70;;;;;;6119463;29;20347;-67
2023/04/25 12:06:32;;;;;;;4.05;1.55;;;24.50;26.70;;;;;;6118683;29;20122;-66
2023/04/25 12:09:33;;;;;;;5.72;1.77;;;24.30;26.90;;;;;;6120328;29;20023;-69
2023/04/25 12:12:35;;;;;;;3.55;1.73;;;24.10;26.80;;;;;;6120647;29;20354;-68
2023/04/25 12:15:40;;;;;;;5.65;1.65;;;24.10;26.80;;;;;;6118708;29;20055;-70
2023/04/25 12:18:41;;;;;;;6.20;1.67;;;24.50;26.50;;;;;;6119929;29;20031;-68
2023/04/25 12:21:43;;;;;;;5.07;1.60;;;25.20;25.90;;;;;;6118768;29;20083;-67
2023/04/25 12:24:45;;;;;;;3.00;1.48;;;25.90;25.30;;;;;;6118650;29;20107;-67
2023/04/25 12:27:46;;;;;;;2.78;1.50;;;26.00;24.90;;;;;;6120141;29;20038;-69
2023/04/25 12:31:00;;;;;;;1.85;1.13;;;25.80;24.70;;;;;;6120343;29;20027;-66
2023/04/25 12:34:02;;;;;;;3.85;1.38;;;25.20;24.20;;;;;;6120134;29;20512;-67
2023/04/25 12:37:03;;;;;;;3.47;1.52;;;24.70;24.60;;;;;;6133335;29;20082;-69
2023/04/25 12:40:06;;;;;;;2.65;1.38;;;24.30;25.00;;;;;;6145225;28;20036;-70
2023/04/25 12:43:07;;;;;;;2.72;1.50;;;23.90;25.10;;;;;;6142854;28;20023;-67
2023/04/25 12:46:08;;;;;;;4.63;1.52;;;23.70;25.40;;;;;;6119371;29;20484;-68
2023/04/25 12:49:09;;;;;;;6.25;1.63;;;23.60;25.60;;;;;;6118066;29;20414;-68
2023/04/25 12:52:10;;;;;;;11.38;1.67;;;24.10;25.40;;;;;;6119612;28;20031;-68
2023/04/25 12:55:11;;;;;;;4.82;1.65;;;25.20;24.90;;;;;;6120102;29;20353;-71
2023/04/25 12:58:17;;;;;;;3.03;1.42;;;25.70;24.20;;;;;;6119898;29;20038;-67
2023/04/25 13:01:18;;;;;;;1.77;1.30;;;25.50;24.20;;;;;;6118660;29;20353;-67
2023/04/25 13:04:20;;;;;;;3.47;1.70;;;25.20;24.20;;;;;;6120343;29;20476;-68
2023/04/25 13:07:22;;;;;;;2.67;1.50;;;24.70;24.60;;;;;;6119837;29;20070;-67
2023/04/25 13:10:23;;;;;;;4.18;1.88;;;24.30;24.90;;;;;;6119984;29;20086;-66
2023/04/25 13:13:24;;;;;;;4.95;1.60;;;23.80;25.20;;;;;;6120292;29;20129;-69
2023/04/25 13:16:25;;;;;;;4.13;1.50;;;23.50;25.70;;;;;;6120319;29;20082;-68
2023/04/25 13:19:28;;;;;;;2.70;1.38;;;23.30;26.10;;;;;;6119969;29;20347;-66
2023/04/25 13:22:29;;;;;;;3.65;1.42;;;23.10;26.30;;;;;;6120708;29;20038;-66
2023/04/25 13:25:30;;;;;;;4.72;1.42;;;22.90;26.50;;;;;;6118630;29;20073;-69
2023/04/25 13:28:31;;;;;;;2.95;1.33;;;22.60;26.70;;;;;;6119637;29;20185;-68
2023/04/25 13:31:32;;;;;;;2.53;1.25;;;22.40;27.00;;;;;;6119988;29;20023;-69
2023/04/25 13:34:33;;;;;;;3.58;1.63;;;22.50;27.20;;;;;;6119532;29;20038;-68
2023/04/25 13:37:34;;;;;;;5.47;1.83;;;22.70;26.80;;;;;;6118448;29;20027;-68
2023/04/25 13:40:35;;;;;;;9.60;1.90;;;22.90;26.30;;;;;;6119719;29;20098;-67
2023/04/25 13:43:36;;;;;;;2.40;1.30;;;23.30;26.10;;;;;;6118397;29;20386;-71
2023/04/25 13:46:37;;;;;;;3.30;1.38;;;24.20;25.30;;;;;;6122686;29;20040;-67
2023/04/25 13:49:38;;;;;;;2.45;1.27;;;24.70;24.40;;;;;;6121893;29;20031;-68
2023/04/25 13:52:39;;;;;;;2.65;1.20;;;25.30;24.10;;;;;;6137500;28;20420;-66
2023/04/25 13:55:40;;;;;;;3.13;1.58;;;26.60;23.20;;;;;;6148143;29;20031;-68
2023/04/25 13:58:41;;;;;;;4.00;1.30;;;28.00;22.20;;;;;;6147842;28;20493;-67
2023/04/25 14:01:42;;;;;;;3.20;1.30;;;28.60;21.60;;;;;;6147695;29;20093;-67
2023/04/25 14:04:43;;;;;;;2.75;1.50;;;29.20;21.30;;;;;;6147791;28;20031;-67
2023/04/25 14:07:44;;;;;;;4.63;1.52;;;30.30;20.80;;;;;;6145747;28;20066;-67
2023/04/25 14:10:45;;;;;;;3.42;1.50;;;31.50;19.70;;;;;;6147614;28;20105;-67
2023/04/25 14:13:46;;;;;;;5.00;1.33;;;32.60;19.10;;;;;;6147327;28;20122;-69
2023/04/25 14:16:48;;;;;;;4.28;1.30;;;32.90;18.40;;;;;;6147657;28;20401;-69
2023/04/25 14:19:50;;;;;;;1.45;1.10;;;32.60;18.00;;;;;;6145885;29;20023;-68
2023/04/25 14:22:51;;;;;;;2.47;1.27;;;31.90;18.10;;;;;;6147096;28;20027;-67
2023/04/25 14:25:53;;;;;;;6.30;1.48;;;31.50;18.40;;;;;;6147133;28;20035;-67
2023/04/25 14:28:54;;;;;;;4.32;1.20;;;30.50;19.20;;;;;;6139126;28;20504;-66
2023/04/25 14:31:57;;;;;;;4.05;1.45;;;29.60;19.80;;;;;;6122248;29;20035;-67
2023/04/25 14:34:58;;;;;;;2.72;1.50;;;28.90;20.20;;;;;;6134116;29;20086;-67
2023/04/25 14:37:59;;;;;;;1.75;1.20;;;28.20;20.50;;;;;;6122870;29;20036;-67
2023/04/25 14:41:00;;;;;;;2.80;1.45;;;27.70;20.90;;;;;;6105579;29;20080;-70
2023/04/25 14:44:02;;;;;;;6.90;1.42;;;27.00;21.30;;;;;;6122858;29;20036;-69
2023/04/25 14:47:03;;;;;;;4.03;1.50;;;26.60;21.70;;;;;;6121456;29;20114;-68
2023/04/25 14:50:05;;;;;;;4.88;1.40;;;26.20;22.00;;;;;;6122723;29;20102;-66
2023/04/25 14:53:06;;;;;;;5.45;1.20;;;25.90;22.30;;;;;;6140184;28;20051;-69
2023/04/25 14:56:08;;;;;;;3.50;1.40;;;25.60;22.50;;;;;;6146092;28;20031;-67
2023/04/25 14:59:09;;;;;;;3.95;1.30;;;25.10;22.70;;;;;;6146277;28;20125;-66
2023/04/25 15:02:11;;;;;;;15.05;1.65;;;24.70;23.20;;;;;;6145982;28;20090;-67
2023/04/25 15:05:12;;;;;;;1.77;1.20;;;24.40;23.60;;;;;;6146088;28;20507;-69
2023/04/25 15:08:13;;;;;;;3.72;1.15;;;24.20;23.80;;;;;;6144272;29;20027;-68
2023/04/25 15:11:14;;;;;;;3.13;1.10;;;24.00;24.00;;;;;;6144206;28;20027;-66
2023/04/25 15:14:17;;;;;;;3.50;1.33;;;23.80;24.10;;;;;;6145878;28;20393;-68
2023/04/25 15:17:18;;;;;;;7.32;1.35;;;23.80;24.30;;;;;;6145595;28;20027;-66
2023/04/25 15:20:19;;;;;;;2.78;1.17;;;23.70;24.30;;;;;;6145461;28;20074;-68
2023/04/25 15:23:21;;;;;;;3.50;1.35;;;23.70;24.50;;;;;;6145805;28;20070;-68
2023/04/25 15:26:22;;;;;;;9.30;1.30;;;23.60;24.50;;;;;;6129038;29;20131;-68
2023/04/25 15:29:23;;;;;;;4.60;1.45;;;23.60;24.50;;;;;;6121387;29;20028;-69
2023/04/25 15:32:24;;;;;;;4.97;1.33;;;23.80;24.30;;;;;;6119590;29;20016;-67
2023/04/25 15:35:25;;;;;;;4.05;1.17;;;23.80;24.30;;;;;;6122240;29;20066;-68
2023/04/25 15:38:26;;;;;;;2.80;1.20;;;23.90;24.20;;;;;;6120113;29;20057;-67
2023/04/25 15:41:28;;;;;;;4.72;1.58;;;24.50;23.80;;;;;;6120643;29;20034;-68
2023/04/25 15:44:32;;;;;;;6.55;1.30;;;26.10;22.60;;;;;;6120255;29;20142;-66
2023/04/25 15:47:37;;;;;;;1.50;1.00;;;27.80;21.30;;;;;;6121302;29;20087;-67
2023/04/25 15:50:38;;;;;;;5.47;1.40;;;29.10;20.20;;;;;;6119991;29;20108;-68
2023/04/25 15:53:40;;;;;;;4.47;1.20;;;30.30;19.40;;;;;;6143047;28;20019;-68
2023/04/25 15:56:41;;;;;;;4.32;1.33;;;31.00;18.70;;;;;;6145220;28;20072;-68